Terminal Aerodrome Forecast
Issued by NWS

Home | Current Version | Previous Version | Graphics & Text | Print | Product List | Glossary On
Versions: 1 2 3 4 5 6 7 8 9 10 11 12 13 14 15
000
FTUS43 KFGF 181730
TAFBJI
TAF
KBJI 181730Z 1818/1918 31013G18KT P6SM BKN021
     FM182200 31013G21KT P6SM SCT025
     FM190200 29010KT P6SM SKC
     FM190700 VRB06KT P6SM SCT100=

USA.gov is the U.S. government's official web portal to all federal, state and local government web resources and services.